createdAt,value
2023-03-17T00:01:12.381Z,99614.81
2023-03-17T00:03:39.120Z,99608.06
2023-03-17T00:06:05.813Z,99615.97
2023-03-17T00:08:32.397Z,99615.16
2023-03-17T00:10:58.849Z,99618.66
2023-03-17T00:13:27.553Z,99616.13
2023-03-17T00:15:54.051Z,99613.66
2023-03-17T00:18:20.581Z,99608.28
2023-03-17T00:20:47.849Z,99603.06
2023-03-17T00:23:14.734Z,99598.88
2023-03-17T00:25:41.151Z,99601.72
2023-03-17T00:28:07.744Z,99598.34
2023-03-17T00:30:34.246Z,99599.25
2023-03-17T00:33:00.834Z,99601.06
2023-03-17T00:35:27.891Z,99590.75
2023-03-17T00:37:54.595Z,99587.69
2023-03-17T00:40:21.097Z,99585.69
2023-03-17T00:42:47.541Z,99577.22
2023-03-17T00:45:14.004Z,99581.09
2023-03-17T00:47:40.785Z,99570.81
2023-03-17T00:50:09.828Z,99570.31
2023-03-17T00:52:36.276Z,99561.44
2023-03-17T00:55:04.053Z,99556.53
2023-03-17T00:57:30.621Z,99557.16
2023-03-17T00:59:57.502Z,99551.03
2023-03-17T01:02:23.971Z,99547.19
2023-03-17T01:04:59.789Z,99541.50
2023-03-17T01:07:30.442Z,99540.66
2023-03-17T01:09:56.857Z,99526.03
2023-03-17T01:12:24.571Z,99527.34
2023-03-17T01:14:51.396Z,99524.69
2023-03-17T01:17:24.027Z,99521.81
2023-03-17T01:19:50.437Z,99511.31
2023-03-17T01:22:18.791Z,99512.16
2023-03-17T01:24:47.128Z,99516.50
2023-03-17T01:27:14.782Z,99510.34
2023-03-17T01:29:43.452Z,99513.97
2023-03-17T01:32:09.962Z,99500.28
2023-03-17T01:34:36.565Z,99504.97
2023-03-17T01:37:03.218Z,99493.84
2023-03-17T01:39:29.692Z,99500.44
2023-03-17T01:41:56.146Z,99494.09
2023-03-17T01:44:22.882Z,99486.22
2023-03-17T01:46:49.382Z,99494.03
2023-03-17T01:49:15.922Z,99490.41
2023-03-17T01:51:44.737Z,99486.09
2023-03-17T01:54:11.177Z,99478.31
2023-03-17T01:56:37.810Z,99473.94
2023-03-17T01:59:04.829Z,99473.59
2023-03-17T02:01:31.302Z,99461.38
2023-03-17T02:03:58.527Z,99460.72
2023-03-17T02:06:25.044Z,99470.22
2023-03-17T02:08:51.732Z,99469.59
2023-03-17T02:11:18.182Z,99470.25
2023-03-17T02:13:44.892Z,99471.91
2023-03-17T02:16:11.690Z,99473.56
2023-03-17T02:18:38.284Z,99469.22
2023-03-17T02:21:06.140Z,99460.97
2023-03-17T02:23:32.988Z,99465.59
2023-03-17T02:25:59.776Z,99458.44
2023-03-17T02:28:27.649Z,99462.00
2023-03-17T02:30:54.389Z,99457.94
2023-03-17T02:33:21.271Z,99458.59
2023-03-17T02:35:47.784Z,99466.22
2023-03-17T02:38:14.515Z,99453.25
2023-03-17T02:40:41.453Z,99447.94
2023-03-17T02:43:08.077Z,99450.31
2023-03-17T02:45:34.996Z,99455.47
2023-03-17T02:48:01.496Z,99439.38
2023-03-17T02:50:28.289Z,99448.91
2023-03-17T02:52:57.209Z,99457.34
2023-03-17T02:55:23.781Z,99456.94
2023-03-17T02:57:53.076Z,99458.50
2023-03-17T03:00:19.745Z,99467.09
2023-03-17T03:02:47.620Z,99465.16
2023-03-17T03:05:14.105Z,99461.06
2023-03-17T03:07:40.627Z,99465.09
2023-03-17T03:10:07.269Z,99454.28
2023-03-17T03:12:33.820Z,99457.78
2023-03-17T03:15:02.702Z,99459.78
2023-03-17T03:17:29.341Z,99462.50
2023-03-17T03:19:55.776Z,99453.28
2023-03-17T03:22:22.245Z,99456.94
2023-03-17T03:24:49.626Z,99438.53
2023-03-17T03:27:16.134Z,99442.63
2023-03-17T03:29:42.585Z,99429.22
2023-03-17T03:32:09.192Z,99432.53
2023-03-17T03:34:35.670Z,99418.91
2023-03-17T03:37:02.112Z,99432.75
2023-03-17T03:39:29.369Z,99432.63
2023-03-17T03:41:56.023Z,99415.31
2023-03-17T03:44:22.568Z,99418.16
2023-03-17T03:46:49.330Z,99425.47
2023-03-17T03:49:16.149Z,99419.84
2023-03-17T03:51:42.848Z,99419.09
2023-03-17T03:54:09.337Z,99427.16
2023-03-17T03:56:35.764Z,99422.47
2023-03-17T03:59:03.014Z,99419.72
2023-03-17T04:01:29.488Z,99420.44
2023-03-17T04:03:56.062Z,99424.81
2023-03-17T04:06:22.645Z,99421.78
2023-03-17T04:08:49.245Z,99420.31
2023-03-17T04:11:15.728Z,99435.09
2023-03-17T04:13:42.170Z,99431.50
2023-03-17T04:16:08.941Z,99421.94
2023-03-17T04:18:35.588Z,99415.91
2023-03-17T04:21:02.084Z,99414.78
2023-03-17T04:23:29.031Z,99418.97
2023-03-17T04:25:55.498Z,99415.75
2023-03-17T04:28:21.938Z,99410.13
2023-03-17T04:30:48.397Z,99415.47
2023-03-17T04:33:14.940Z,99412.97
2023-03-17T04:35:41.799Z,99410.66
2023-03-17T04:38:08.348Z,99414.81
2023-03-17T04:40:34.842Z,99411.31
2023-03-17T04:43:03.564Z,99415.81
2023-03-17T04:45:30.145Z,99399.50
2023-03-17T04:47:56.599Z,99406.34
2023-03-17T04:50:23.085Z,99401.91
2023-03-17T04:52:49.720Z,99410.16
2023-03-17T04:55:16.207Z,99404.78
2023-03-17T04:57:42.769Z,99407.13
2023-03-17T05:00:09.513Z,99405.84
2023-03-17T05:02:36.034Z,99417.91
2023-03-17T05:05:02.708Z,99410.53
2023-03-17T05:07:29.113Z,99412.25
2023-03-17T05:09:55.606Z,99416.47
2023-03-17T05:12:22.114Z,99406.69
2023-03-17T05:14:48.816Z,99408.44
2023-03-17T05:17:15.314Z,99408.69
2023-03-17T05:19:46.387Z,99403.31
2023-03-17T05:22:12.899Z,99403.38
2023-03-17T05:24:39.425Z,99406.69
2023-03-17T05:27:06.890Z,99407.34
2023-03-17T05:29:33.405Z,99410.81
2023-03-17T05:31:59.849Z,99414.19
2023-03-17T05:34:26.368Z,99406.00
2023-03-17T05:36:52.987Z,99409.94
2023-03-17T05:39:19.549Z,99415.13
2023-03-17T05:41:46.167Z,99411.38
2023-03-17T05:44:12.783Z,99409.38
2023-03-17T05:46:39.297Z,99413.81
2023-03-17T05:49:05.885Z,99414.78
2023-03-17T05:51:32.396Z,99405.63
2023-03-17T05:53:59.929Z,99414.09
2023-03-17T05:56:26.410Z,99405.13
2023-03-17T05:58:54.114Z,99402.88
2023-03-17T06:01:21.553Z,99413.97
2023-03-17T06:03:48.189Z,99408.00
2023-03-17T06:06:14.700Z,99416.31
2023-03-17T06:08:42.203Z,99402.81
2023-03-17T06:11:09.366Z,99407.88
2023-03-17T06:13:35.985Z,99406.47
2023-03-17T06:16:02.884Z,99405.09
2023-03-17T06:18:29.411Z,99403.38
2023-03-17T06:20:56.009Z,99402.06
2023-03-17T06:23:23.510Z,99403.84
2023-03-17T06:25:50.152Z,99394.19
2023-03-17T06:28:16.568Z,99403.16
2023-03-17T06:30:43.048Z,99411.03
2023-03-17T06:33:09.711Z,99391.16
2023-03-17T06:35:36.282Z,99389.91
2023-03-17T06:38:02.831Z,99394.50
2023-03-17T06:40:29.698Z,99399.84
2023-03-17T06:42:56.192Z,99405.06
2023-03-17T06:45:22.861Z,99411.56
2023-03-17T06:47:49.819Z,99402.53
2023-03-17T06:50:17.503Z,99403.75
2023-03-17T06:52:46.618Z,99408.16
2023-03-17T06:55:13.387Z,99409.38
2023-03-17T06:57:40.391Z,99406.31
2023-03-17T07:00:06.811Z,99405.81
2023-03-17T07:02:34.254Z,99401.41
2023-03-17T07:05:00.862Z,99411.84
2023-03-17T07:07:27.586Z,99408.69
2023-03-17T07:09:54.059Z,99404.22
2023-03-17T07:12:20.538Z,99403.38
2023-03-17T07:14:47.177Z,99394.75
2023-03-17T07:17:14.240Z,99411.78
2023-03-17T07:19:40.775Z,99409.38
2023-03-17T07:22:07.221Z,99411.09
2023-03-17T07:24:33.729Z,99412.44
2023-03-17T07:27:01.188Z,99416.91
2023-03-17T07:29:27.638Z,99408.88
2023-03-17T07:31:54.423Z,99412.88
2023-03-17T07:34:20.940Z,99413.03
2023-03-17T07:36:47.570Z,99403.28
2023-03-17T07:39:14.442Z,99391.97
2023-03-17T07:41:42.098Z,99393.53
2023-03-17T07:44:08.989Z,99392.63
2023-03-17T07:46:36.639Z,99399.88
2023-03-17T07:49:04.000Z,99395.75
2023-03-17T07:51:30.485Z,99397.34
2023-03-17T07:53:56.952Z,99390.22
2023-03-17T07:56:25.143Z,99387.97
2023-03-17T07:58:53.942Z,99386.09
2023-03-17T08:01:20.674Z,99384.13
2023-03-17T08:03:47.394Z,99376.28
2023-03-17T08:06:13.910Z,99391.00
2023-03-17T08:08:41.009Z,99385.97
2023-03-17T08:11:09.719Z,99372.00
2023-03-17T08:13:36.658Z,99379.75
2023-03-17T08:16:03.290Z,99379.19
2023-03-17T08:18:29.948Z,99379.91
2023-03-17T08:20:56.441Z,99378.13
2023-03-17T08:23:25.120Z,99366.28
2023-03-17T08:25:54.073Z,99363.19
2023-03-17T08:28:20.764Z,99360.38
2023-03-17T08:30:51.341Z,99374.50
2023-03-17T08:33:18.315Z,99372.69
2023-03-17T08:35:46.246Z,99363.00
2023-03-17T08:38:12.959Z,99367.66
2023-03-17T08:40:39.903Z,99362.28
2023-03-17T08:43:06.820Z,99356.53
2023-03-17T08:45:33.557Z,99359.50
2023-03-17T08:48:00.032Z,99367.28
2023-03-17T08:50:27.580Z,99360.59
2023-03-17T08:52:56.535Z,99365.59
2023-03-17T08:55:23.614Z,99364.34
2023-03-17T08:57:50.695Z,99353.41
2023-03-17T09:00:17.278Z,99358.75
2023-03-17T09:02:45.289Z,99354.72
2023-03-17T09:05:12.000Z,99364.31
2023-03-17T09:07:38.524Z,99365.34
2023-03-17T09:10:05.133Z,99371.75
2023-03-17T09:12:33.779Z,99368.97
2023-03-17T09:15:00.621Z,99368.66
2023-03-17T09:17:27.217Z,99383.78
2023-03-17T09:19:53.805Z,99383.66
2023-03-17T09:22:20.295Z,99377.78
2023-03-17T09:24:46.775Z,99384.22
2023-03-17T09:27:13.276Z,99380.09
2023-03-17T09:29:40.882Z,99375.06
2023-03-17T09:32:07.790Z,99384.50
2023-03-17T09:34:34.253Z,99381.25
2023-03-17T09:37:01.022Z,99375.16
2023-03-17T09:39:27.569Z,99372.19
2023-03-17T09:41:55.123Z,99375.66
2023-03-17T09:44:21.831Z,99363.94
2023-03-17T09:46:48.451Z,99372.78
2023-03-17T09:49:15.188Z,99361.13
2023-03-17T09:51:43.702Z,99357.00
2023-03-17T09:54:10.441Z,99348.25
2023-03-17T09:56:36.937Z,99343.31
2023-03-17T09:59:03.536Z,99342.88
2023-03-17T10:01:30.013Z,99334.16
2023-03-17T10:03:56.654Z,99337.84
2023-03-17T10:06:23.399Z,99327.59
2023-03-17T10:08:50.163Z,99314.69
2023-03-17T10:11:16.794Z,99333.63
2023-03-17T10:13:43.314Z,99326.53
2023-03-17T10:16:09.846Z,99327.00
2023-03-17T10:18:36.348Z,99347.41
2023-03-17T10:21:02.959Z,99327.44
2023-03-17T10:23:29.471Z,99339.78
2023-03-17T10:25:56.191Z,99335.31
2023-03-17T10:28:22.647Z,99329.16
2023-03-17T10:30:49.233Z,99328.44
2023-03-17T10:33:16.031Z,99329.38
2023-03-17T10:35:42.471Z,99325.88
2023-03-17T10:38:14.398Z,99335.47
2023-03-17T10:40:42.099Z,99327.63
2023-03-17T10:43:10.453Z,99310.22
2023-03-17T10:45:40.038Z,99304.13
2023-03-17T10:48:07.376Z,99308.69
2023-03-17T10:50:34.484Z,99297.03
2023-03-17T10:53:01.208Z,99298.75
2023-03-17T10:55:27.866Z,99308.91
2023-03-17T10:57:54.626Z,99301.72
2023-03-17T11:00:21.200Z,99321.38
2023-03-17T11:02:47.661Z,99303.78
2023-03-17T11:05:14.149Z,99299.84
2023-03-17T11:07:40.741Z,99303.94
2023-03-17T11:10:07.312Z,99316.63
2023-03-17T11:12:33.808Z,99303.84
2023-03-17T11:15:00.531Z,99287.88
2023-03-17T11:17:27.185Z,99291.72
2023-03-17T11:19:54.593Z,99304.00
2023-03-17T11:22:21.145Z,99289.09
2023-03-17T11:24:48.032Z,99292.50
2023-03-17T11:27:18.719Z,99296.19
2023-03-17T11:29:46.196Z,99289.81
2023-03-17T11:32:12.719Z,99285.53
2023-03-17T11:34:39.570Z,99287.03
2023-03-17T11:37:06.243Z,99270.53
2023-03-17T11:39:32.906Z,99281.34
2023-03-17T11:41:59.383Z,99275.88
2023-03-17T11:44:25.984Z,99263.19
2023-03-17T11:46:52.566Z,99268.22
2023-03-17T11:49:19.006Z,99261.38
2023-03-17T11:51:45.514Z,99235.41
2023-03-17T11:54:12.472Z,99241.84
2023-03-17T11:56:38.889Z,99239.09
2023-03-17T11:59:05.384Z,99244.81
2023-03-17T12:01:32.049Z,99229.72
2023-03-17T12:03:58.532Z,99223.88
2023-03-17T12:06:25.378Z,99220.34
2023-03-17T12:08:51.897Z,99219.06
2023-03-17T12:11:18.791Z,99218.19
2023-03-17T12:13:48.144Z,99218.47
2023-03-17T12:16:14.653Z,99224.06
2023-03-17T12:18:41.166Z,99207.50
2023-03-17T12:21:07.831Z,99214.47
2023-03-17T12:23:34.476Z,99202.63
2023-03-17T12:26:00.912Z,99205.03
2023-03-17T12:28:27.489Z,99210.91
2023-03-17T12:30:53.934Z,99200.94
2023-03-17T12:33:20.387Z,99200.75
2023-03-17T12:35:47.232Z,99198.88
2023-03-17T12:38:14.166Z,99187.97
2023-03-17T12:40:40.673Z,99201.03
2023-03-17T12:43:07.100Z,99190.06
2023-03-17T12:45:34.662Z,99181.00
2023-03-17T12:48:01.603Z,99177.97
2023-03-17T12:50:28.586Z,99178.41
2023-03-17T12:52:55.061Z,99160.72
2023-03-17T12:55:21.530Z,99167.44
2023-03-17T12:57:47.925Z,99150.03
2023-03-17T13:00:17.385Z,99153.84
2023-03-17T13:02:44.068Z,99136.84
2023-03-17T13:05:10.505Z,99149.94
2023-03-17T13:07:37.008Z,99139.41
2023-03-17T13:10:03.466Z,99141.56
2023-03-17T13:12:29.901Z,99131.16
2023-03-17T13:14:56.349Z,99138.13
2023-03-17T13:17:22.794Z,99136.44
2023-03-17T13:19:49.344Z,99141.63
2023-03-17T13:22:16.067Z,99122.19
2023-03-17T13:24:42.597Z,99124.94
2023-03-17T13:27:09.093Z,99134.31
2023-03-17T13:29:35.613Z,99135.69
2023-03-17T13:32:02.172Z,99141.47
2023-03-17T13:34:29.866Z,99123.69
2023-03-17T13:36:56.452Z,99136.00
2023-03-17T13:39:24.962Z,99126.56
2023-03-17T13:41:51.652Z,99114.97
2023-03-17T13:44:18.642Z,99120.16
2023-03-17T13:46:45.106Z,99123.69
2023-03-17T13:49:11.738Z,99115.69
2023-03-17T13:51:40.184Z,99112.66
2023-03-17T13:54:10.602Z,99119.28
2023-03-17T13:56:37.770Z,99111.16
2023-03-17T13:59:04.279Z,99111.16
2023-03-17T14:01:30.942Z,99108.50
2023-03-17T14:03:57.891Z,99105.94
2023-03-17T14:06:24.338Z,99093.94
2023-03-17T14:08:51.245Z,99086.09
2023-03-17T14:11:20.214Z,99083.41
2023-03-17T14:13:48.840Z,99086.94
2023-03-17T14:16:15.335Z,99086.88
2023-03-17T14:18:44.777Z,99079.53
2023-03-17T14:21:11.800Z,99076.59
2023-03-17T14:23:38.525Z,99087.28
2023-03-17T14:26:05.543Z,99069.47
2023-03-17T14:28:33.822Z,99075.31
2023-03-17T14:31:02.637Z,99075.94
2023-03-17T14:33:29.666Z,99080.44
2023-03-17T14:35:56.393Z,99074.31
2023-03-17T14:38:23.552Z,99068.66
2023-03-17T14:40:51.359Z,99066.88
2023-03-17T14:43:18.032Z,99050.88
2023-03-17T14:45:44.502Z,99060.50
2023-03-17T14:48:11.516Z,99062.94
2023-03-17T14:50:37.903Z,99062.75
2023-03-17T14:53:05.756Z,99059.03
2023-03-17T14:55:32.614Z,99055.13
2023-03-17T14:57:59.492Z,99054.91
2023-03-17T15:00:26.327Z,99051.50
2023-03-17T15:02:55.548Z,99054.81
2023-03-17T15:05:21.965Z,99054.69
2023-03-17T15:07:49.751Z,99054.28
2023-03-17T15:10:16.327Z,99065.28
2023-03-17T15:12:42.910Z,99056.31
2023-03-17T15:15:09.488Z,99056.38
2023-03-17T15:17:36.184Z,99043.38
2023-03-17T15:20:03.636Z,99041.22
2023-03-17T15:22:30.778Z,99040.94
2023-03-17T15:24:57.264Z,99030.13
2023-03-17T15:27:23.747Z,99032.78
2023-03-17T15:29:50.242Z,99030.84
2023-03-17T15:32:19.183Z,99027.97
2023-03-17T15:34:45.716Z,99030.44
2023-03-17T15:37:12.451Z,99017.19
2023-03-17T15:39:39.140Z,99016.66
2023-03-17T15:42:05.872Z,99013.03
2023-03-17T15:44:32.397Z,99021.47
2023-03-17T15:46:58.873Z,99018.53
2023-03-17T15:49:26.937Z,99023.16
2023-03-17T15:51:55.201Z,99023.78
2023-03-17T15:54:23.747Z,99026.59
2023-03-17T15:56:50.418Z,99022.50
2023-03-17T15:59:19.445Z,99018.22
2023-03-17T16:01:46.019Z,99010.59
2023-03-17T16:04:12.545Z,99012.09
2023-03-17T16:06:39.862Z,99012.25
2023-03-17T16:09:06.281Z,99000.63
2023-03-17T16:11:32.991Z,99006.75
2023-03-17T16:14:00.138Z,99002.56
2023-03-17T16:16:26.785Z,99006.34
2023-03-17T16:18:53.366Z,99005.28
2023-03-17T16:21:19.996Z,98997.72
2023-03-17T16:23:47.165Z,99009.91
2023-03-17T16:26:16.145Z,99010.88
2023-03-17T16:28:43.135Z,99003.81
2023-03-17T16:31:09.611Z,99013.41
2023-03-17T16:33:38.238Z,99014.72
2023-03-17T16:36:04.750Z,99009.28
2023-03-17T16:38:31.356Z,99029.25
2023-03-17T16:40:57.858Z,99030.59
2023-03-17T16:43:25.852Z,99022.41
2023-03-17T16:45:55.820Z,99026.53
2023-03-17T16:48:22.619Z,99034.00
2023-03-17T16:50:51.843Z,99032.84
2023-03-17T16:53:19.335Z,99039.09
2023-03-17T16:55:46.179Z,99035.69
2023-03-17T16:58:12.848Z,99036.03
2023-03-17T17:00:40.159Z,99036.53
2023-03-17T17:03:07.363Z,99034.06
2023-03-17T17:05:34.133Z,99043.03
2023-03-17T17:08:01.224Z,99038.13
2023-03-17T17:10:27.772Z,99049.66
2023-03-17T17:12:54.328Z,99038.03
2023-03-17T17:15:20.854Z,99051.22
2023-03-17T17:17:47.391Z,99044.63
2023-03-17T17:20:13.960Z,99047.84
2023-03-17T17:22:40.918Z,99050.66
2023-03-17T17:25:08.285Z,99047.16
2023-03-17T17:27:35.181Z,99040.53
2023-03-17T17:30:01.910Z,99048.09
2023-03-17T17:32:28.770Z,99043.03
2023-03-17T17:34:55.593Z,99037.09
2023-03-17T17:37:23.371Z,99047.47
2023-03-17T17:39:51.050Z,99035.94
2023-03-17T17:42:17.905Z,99032.63
2023-03-17T17:44:45.437Z,99034.28
2023-03-17T17:47:12.293Z,99027.78
2023-03-17T17:49:39.262Z,99020.34
2023-03-17T17:52:06.300Z,99029.47
2023-03-17T17:54:33.047Z,99029.50
2023-03-17T17:57:00.389Z,99031.53
2023-03-17T17:59:27.168Z,99022.19
2023-03-17T18:01:55.459Z,99020.50
2023-03-17T18:04:22.274Z,99019.94
2023-03-17T18:06:49.473Z,99021.28
2023-03-17T18:09:16.401Z,99011.06
2023-03-17T18:11:43.350Z,99022.69
2023-03-17T18:14:10.370Z,99021.47
2023-03-17T18:16:37.311Z,99033.78
2023-03-17T18:19:04.132Z,99034.81
2023-03-17T18:21:32.116Z,99035.13
2023-03-17T18:23:59.065Z,99025.47
2023-03-17T18:26:26.298Z,99024.47
2023-03-17T18:28:53.681Z,99026.38
2023-03-17T18:31:20.634Z,99017.88
2023-03-17T18:33:49.214Z,99024.50
2023-03-17T18:36:20.052Z,99019.72
2023-03-17T18:38:47.861Z,99011.03
2023-03-17T18:41:14.400Z,99020.56
2023-03-17T18:43:41.286Z,99010.88
2023-03-17T18:46:08.883Z,99018.63
2023-03-17T18:48:36.113Z,99021.69
2023-03-17T18:51:03.936Z,99015.59
2023-03-17T18:53:31.621Z,99020.75
2023-03-17T18:55:59.302Z,99012.50
2023-03-17T18:58:26.329Z,99014.94
2023-03-17T19:00:52.912Z,99014.09
2023-03-17T19:03:20.562Z,99011.50
2023-03-17T19:05:47.540Z,99013.78
2023-03-17T19:08:14.173Z,99017.19
2023-03-17T19:10:41.698Z,99015.00
2023-03-17T19:13:10.190Z,99014.81
2023-03-17T19:15:36.751Z,99005.94
2023-03-17T19:18:04.326Z,99009.56
2023-03-17T19:20:33.301Z,99010.31
2023-03-17T19:23:00.402Z,99000.47
2023-03-17T19:25:27.507Z,98989.78
2023-03-17T19:27:55.971Z,99002.50
2023-03-17T19:30:23.680Z,99002.41
2023-03-17T19:32:51.427Z,98995.97
2023-03-17T19:35:18.629Z,99006.41
2023-03-17T19:37:46.831Z,99005.03
2023-03-17T19:40:13.848Z,99007.44
2023-03-17T19:42:41.430Z,99006.19
2023-03-17T19:45:07.945Z,99008.13
2023-03-17T19:47:34.412Z,98996.63
2023-03-17T19:50:01.404Z,99000.50
2023-03-17T19:52:28.902Z,99000.84
2023-03-17T19:54:58.643Z,99000.03
2023-03-17T19:57:25.874Z,99003.53
2023-03-17T19:59:53.922Z,98991.69
2023-03-17T20:02:21.155Z,98990.78
2023-03-17T20:04:48.332Z,98991.94
2023-03-17T20:07:14.935Z,98996.19
2023-03-17T20:09:41.882Z,98994.81
2023-03-17T20:12:10.679Z,99003.53
2023-03-17T20:14:37.244Z,99004.06
2023-03-17T20:17:03.658Z,99005.13
2023-03-17T20:19:31.168Z,99000.03
2023-03-17T20:21:58.938Z,99002.94
2023-03-17T20:24:26.326Z,99005.84
2023-03-17T20:26:53.650Z,98984.50
2023-03-17T20:29:20.760Z,98990.59
2023-03-17T20:31:47.708Z,98998.06
2023-03-17T20:34:15.800Z,98996.03
2023-03-17T20:36:42.837Z,98988.22
2023-03-17T20:39:09.977Z,98992.63
2023-03-17T20:41:39.697Z,98988.41
2023-03-17T20:44:06.772Z,98993.03
2023-03-17T20:46:33.885Z,98990.16
2023-03-17T20:49:02.035Z,98994.03
2023-03-17T20:51:29.132Z,98994.75
2023-03-17T20:53:57.073Z,98988.53
2023-03-17T20:56:24.108Z,98985.47
2023-03-17T20:58:51.752Z,98984.38
2023-03-17T21:01:21.124Z,98983.00
2023-03-17T21:03:55.116Z,98977.00
2023-03-17T21:06:26.276Z,98974.03
2023-03-17T21:08:53.676Z,98981.13
2023-03-17T21:11:20.329Z,98976.03
2023-03-17T21:13:46.996Z,98960.78
2023-03-17T21:16:13.741Z,98973.00
2023-03-17T21:18:40.900Z,98968.53
2023-03-17T21:21:07.581Z,98963.53
2023-03-17T21:23:34.079Z,98972.09
2023-03-17T21:26:00.989Z,98965.22
2023-03-17T21:28:28.388Z,98963.47
2023-03-17T21:30:55.071Z,98963.28
2023-03-17T21:33:22.365Z,98962.28
2023-03-17T21:35:48.933Z,98953.97
2023-03-17T21:38:15.562Z,98961.22
2023-03-17T21:40:42.081Z,98962.66
2023-03-17T21:43:10.944Z,98957.72
2023-03-17T21:45:39.137Z,98956.56
2023-03-17T21:48:08.003Z,98951.13
2023-03-17T21:50:34.984Z,98951.53
2023-03-17T21:53:02.020Z,98959.75
2023-03-17T21:55:31.487Z,98953.28
2023-03-17T21:57:57.879Z,98958.97
2023-03-17T22:00:25.711Z,98954.44
2023-03-17T22:02:53.731Z,98954.44
2023-03-17T22:05:22.655Z,98952.56
2023-03-17T22:07:49.036Z,98947.19
2023-03-17T22:10:15.555Z,98939.69
2023-03-17T22:12:42.989Z,98944.38
2023-03-17T22:15:09.374Z,98944.81
2023-03-17T22:17:35.952Z,98947.78
2023-03-17T22:20:04.661Z,98947.06
2023-03-17T22:22:31.146Z,98942.53
2023-03-17T22:24:57.587Z,98945.94
2023-03-17T22:27:25.543Z,98934.47
2023-03-17T22:29:52.141Z,98935.19
2023-03-17T22:32:18.670Z,98938.13
2023-03-17T22:34:45.075Z,98936.44
2023-03-17T22:37:11.636Z,98948.06
2023-03-17T22:39:38.114Z,98945.38
2023-03-17T22:42:05.275Z,98937.63
2023-03-17T22:44:31.679Z,98933.47
2023-03-17T22:46:58.097Z,98950.59
2023-03-17T22:49:24.536Z,98945.69
2023-03-17T22:51:51.076Z,98943.25
2023-03-17T22:54:17.484Z,98935.72
2023-03-17T22:56:44.835Z,98940.53
2023-03-17T22:59:13.312Z,98939.03
2023-03-17T23:01:41.119Z,98939.34
2023-03-17T23:04:09.380Z,98934.19
2023-03-17T23:06:36.366Z,98926.22
2023-03-17T23:09:02.880Z,98922.19
2023-03-17T23:11:29.332Z,98918.03
2023-03-17T23:13:55.732Z,98920.06
2023-03-17T23:16:22.574Z,98932.34
2023-03-17T23:18:49.326Z,98931.06
2023-03-17T23:21:15.706Z,98930.78
2023-03-17T23:23:42.281Z,98923.63
2023-03-17T23:26:09.555Z,98938.50
2023-03-17T23:28:37.380Z,98928.75
2023-03-17T23:31:03.884Z,98936.00
2023-03-17T23:33:31.234Z,98929.13
2023-03-17T23:35:57.795Z,98928.88
2023-03-17T23:38:24.743Z,98934.06
2023-03-17T23:40:51.190Z,98928.16
2023-03-17T23:43:20.149Z,98932.06
2023-03-17T23:45:46.879Z,98929.34
2023-03-17T23:48:13.565Z,98933.25
2023-03-17T23:50:40.504Z,98931.56
2023-03-17T23:53:07.045Z,98935.69
2023-03-17T23:55:33.690Z,98933.00
2023-03-17T23:58:00.318Z,98932.88
